createdAt,value
2024-02-13T00:00:30.858Z,4.12
2024-02-13T00:03:45.603Z,4.90
2024-02-13T00:07:02.029Z,4.47
2024-02-13T00:10:15.486Z,6.03
2024-02-13T00:13:29.782Z,4.78
2024-02-13T00:16:48.027Z,6.25
2024-02-13T00:19:59.870Z,4.70
2024-02-13T00:23:11.207Z,5.40
2024-02-13T00:26:27.493Z,4.30
2024-02-13T00:29:44.845Z,4.32
2024-02-13T00:32:55.573Z,4.30
2024-02-13T00:36:09.587Z,5.53
2024-02-13T00:39:23.691Z,5.25
2024-02-13T00:42:40.963Z,4.32
2024-02-13T00:45:58.751Z,6.43
2024-02-13T00:49:16.608Z,8.68
2024-02-13T00:52:35.244Z,5.75
2024-02-13T00:55:49.421Z,5.65
2024-02-13T00:59:11.468Z,5.72
2024-02-13T01:02:36.684Z,4.72
2024-02-13T01:05:53.128Z,7.15
2024-02-13T01:09:10.243Z,6.37
2024-02-13T01:12:23.308Z,5.12
2024-02-13T01:15:47.912Z,4.70
2024-02-13T01:19:01.075Z,5.87
2024-02-13T01:25:33.001Z,5.75
2024-02-13T01:28:43.820Z,5.03
2024-02-13T01:31:56.478Z,5.95
2024-02-13T01:35:10.662Z,6.25
2024-02-13T01:38:24.520Z,5.95
2024-02-13T01:41:41.424Z,6.72
2024-02-13T01:44:59.145Z,4.85
2024-02-13T01:48:16.286Z,6.22
2024-02-13T01:51:34.096Z,5.40
2024-02-13T01:54:49.199Z,5.85
2024-02-13T01:58:00.709Z,6.12
2024-02-13T02:01:14.291Z,4.75
2024-02-13T02:04:25.766Z,7.05
2024-02-13T02:07:40.621Z,6.10
2024-02-13T02:10:54.265Z,5.28
2024-02-13T02:14:05.061Z,7.05
2024-02-13T02:17:16.764Z,6.45
2024-02-13T02:20:29.444Z,6.87
2024-02-13T02:23:44.318Z,7.00
2024-02-13T02:26:58.439Z,6.10
2024-02-13T02:30:10.957Z,6.10
2024-02-13T02:33:27.298Z,7.25
2024-02-13T02:36:48.935Z,6.22
2024-02-13T02:40:02.885Z,6.70
2024-02-13T02:43:13.419Z,6.07
2024-02-13T02:46:27.174Z,8.00
2024-02-13T02:49:43.980Z,6.25
2024-02-13T02:53:01.133Z,6.95
2024-02-13T02:59:39.823Z,5.93
2024-02-13T03:06:10.076Z,8.07
2024-02-13T03:09:29.752Z,7.95
2024-02-13T03:12:45.597Z,9.77
2024-02-13T03:16:01.672Z,7.32
2024-02-13T03:19:13.650Z,7.82
2024-02-13T03:22:29.508Z,6.47
2024-02-13T03:25:45.034Z,7.97
2024-02-13T03:28:56.902Z,7.68
2024-02-13T03:32:09.722Z,7.07
2024-02-13T03:35:25.996Z,5.43
2024-02-13T03:38:40.700Z,6.25
2024-02-13T03:41:54.685Z,5.97
2024-02-13T03:45:09.685Z,7.72
2024-02-13T03:48:24.447Z,6.45
2024-02-13T03:51:36.654Z,6.97
2024-02-13T03:54:49.355Z,7.00
2024-02-13T03:57:54.448Z,7.95
2024-02-13T04:01:01.699Z,6.43
2024-02-13T04:04:11.867Z,9.35
2024-02-13T04:07:27.768Z,5.65
2024-02-13T04:10:42.669Z,8.13
2024-02-13T04:13:54.771Z,5.78
2024-02-13T04:17:08.340Z,6.05
2024-02-13T04:20:20.321Z,7.93
2024-02-13T04:23:31.874Z,5.97
2024-02-13T04:26:43.444Z,6.85
2024-02-13T04:29:52.597Z,6.78
2024-02-13T04:33:02.493Z,7.20
2024-02-13T04:36:07.109Z,7.37
2024-02-13T04:39:17.834Z,7.32
2024-02-13T04:42:33.546Z,6.78
2024-02-13T04:45:43.177Z,6.47
2024-02-13T04:48:54.053Z,6.87
2024-02-13T04:52:03.925Z,7.32
2024-02-13T04:55:17.067Z,7.75
2024-02-13T04:58:29.428Z,6.95
2024-02-13T05:01:44.870Z,7.40
2024-02-13T05:05:11.949Z,7.60
2024-02-13T05:08:27.250Z,8.38
2024-02-13T05:11:39.528Z,7.15
2024-02-13T05:14:52.941Z,9.63
2024-02-13T05:18:03.614Z,7.87
2024-02-13T05:21:16.485Z,8.52
2024-02-13T05:24:27.946Z,8.27
2024-02-13T05:27:43.425Z,8.63
2024-02-13T05:30:54.702Z,10.20
2024-02-13T05:34:08.541Z,8.20
2024-02-13T05:37:22.974Z,7.93
2024-02-13T05:43:52.657Z,8.90
2024-02-13T05:47:05.124Z,8.30
2024-02-13T05:50:21.691Z,8.65
2024-02-13T05:53:39.126Z,8.68
2024-02-13T05:56:52.146Z,9.23
2024-02-13T06:00:05.589Z,9.32
2024-02-13T06:03:21.500Z,9.93
2024-02-13T06:06:33.303Z,11.18
2024-02-13T06:09:44.380Z,10.00
2024-02-13T06:12:55.773Z,9.80
2024-02-13T06:16:04.558Z,10.85
2024-02-13T06:19:13.968Z,10.60
2024-02-13T06:22:27.981Z,10.10
2024-02-13T06:25:38.985Z,8.52
2024-02-13T06:28:48.136Z,10.20
2024-02-13T06:31:59.173Z,8.85
2024-02-13T06:35:09.359Z,9.68
2024-02-13T06:38:19.544Z,9.32
2024-02-13T06:41:24.775Z,8.93
2024-02-13T06:44:41.921Z,9.73
2024-02-13T06:47:53.134Z,9.70
2024-02-13T06:51:03.376Z,9.38
2024-02-13T06:54:12.709Z,8.10
2024-02-13T06:57:19.944Z,10.27
2024-02-13T07:00:29.910Z,9.30
2024-02-13T07:03:42.329Z,9.52
2024-02-13T07:06:59.289Z,10.00
2024-02-13T07:10:23.175Z,10.55
2024-02-13T07:13:35.430Z,9.73
2024-02-13T07:16:52.329Z,8.85
2024-02-13T07:20:01.615Z,8.32
2024-02-13T07:23:14.463Z,9.00
2024-02-13T07:26:23.785Z,7.40
2024-02-13T07:29:32.997Z,9.15
2024-02-13T07:32:41.021Z,9.60
2024-02-13T07:35:51.042Z,12.32
2024-02-13T07:38:57.747Z,11.63
2024-02-13T07:42:04.317Z,8.85
2024-02-13T07:45:10.954Z,9.93
2024-02-13T07:48:15.542Z,10.13
2024-02-13T07:51:23.824Z,10.57
2024-02-13T07:54:34.114Z,10.70
2024-02-13T07:57:39.764Z,8.15
2024-02-13T08:00:49.409Z,6.90
2024-02-13T08:04:02.270Z,7.50
2024-02-13T08:07:13.288Z,8.43
2024-02-13T08:10:26.258Z,9.60
2024-02-13T08:13:40.268Z,8.07
2024-02-13T08:16:53.411Z,8.88
2024-02-13T08:20:07.376Z,8.43
2024-02-13T08:23:18.545Z,7.87
2024-02-13T08:26:32.795Z,8.77
2024-02-13T08:29:43.805Z,9.32
2024-02-13T08:32:50.579Z,10.50
2024-02-13T08:36:00.957Z,8.20
2024-02-13T08:39:09.304Z,9.68
2024-02-13T08:42:18.469Z,8.85
2024-02-13T08:45:25.140Z,8.27
2024-02-13T08:48:35.429Z,8.38
2024-02-13T08:51:48.892Z,8.25
2024-02-13T08:54:57.133Z,9.55
2024-02-13T08:58:03.512Z,8.13
2024-02-13T09:01:11.645Z,9.25
2024-02-13T09:04:20.246Z,8.02
2024-02-13T09:07:33.854Z,9.75
2024-02-13T09:10:47.607Z,6.10
2024-02-13T09:13:55.991Z,7.53
2024-02-13T09:17:01.528Z,8.65
2024-02-13T09:20:17.184Z,7.40
2024-02-13T09:23:27.869Z,7.32
2024-02-13T09:26:42.496Z,7.95
2024-02-13T09:29:52.404Z,7.55
2024-02-13T09:33:03.209Z,7.80
2024-02-13T09:36:18.161Z,10.38
2024-02-13T09:39:26.249Z,6.97
2024-02-13T09:42:30.049Z,9.45
2024-02-13T09:45:37.406Z,8.45
2024-02-13T09:48:50.294Z,9.48
2024-02-13T09:51:57.876Z,7.18
2024-02-13T09:55:03.670Z,9.55
2024-02-13T09:58:08.972Z,8.40
2024-02-13T10:01:15.218Z,9.15
2024-02-13T10:04:24.508Z,10.05
2024-02-13T10:07:30.713Z,6.95
2024-02-13T10:10:35.142Z,8.05
2024-02-13T10:13:46.136Z,8.77
2024-02-13T10:16:59.051Z,8.48
2024-02-13T10:20:08.177Z,10.48
2024-02-13T10:23:19.471Z,6.25
2024-02-13T10:26:27.198Z,6.50
2024-02-13T10:29:46.579Z,10.55
2024-02-13T10:32:54.167Z,5.45
2024-02-13T10:35:59.234Z,4.40
2024-02-13T10:39:08.540Z,5.75
2024-02-13T10:42:17.416Z,6.32
2024-02-13T10:45:34.299Z,5.10
2024-02-13T10:49:17.330Z,4.35
2024-02-13T10:52:26.099Z,5.25
2024-02-13T10:55:36.500Z,5.12
2024-02-13T10:58:48.163Z,3.90
2024-02-13T11:01:56.635Z,4.12
2024-02-13T11:05:08.689Z,3.72
2024-02-13T11:08:15.993Z,4.70
2024-02-13T11:11:27.993Z,4.40
2024-02-13T11:14:38.277Z,3.78
2024-02-13T11:17:49.971Z,5.50
2024-02-13T11:21:09.208Z,6.85
2024-02-13T11:24:23.944Z,6.47
2024-02-13T11:27:34.055Z,4.87
2024-02-13T11:30:44.400Z,4.75
2024-02-13T11:34:13.146Z,6.47
2024-02-13T11:37:23.457Z,4.15
2024-02-13T11:40:35.769Z,4.12
2024-02-13T11:43:40.503Z,5.07
2024-02-13T11:46:57.955Z,4.00
2024-02-13T11:50:09.007Z,5.68
2024-02-13T11:53:19.909Z,4.72
2024-02-13T11:56:24.779Z,3.92
2024-02-13T11:59:29.256Z,5.50
2024-02-13T12:02:35.113Z,6.80
2024-02-13T12:05:40.896Z,4.93
2024-02-13T12:08:46.194Z,4.47
2024-02-13T12:11:51.067Z,4.53
2024-02-13T12:14:54.738Z,5.12
2024-02-13T12:17:59.610Z,3.87
2024-02-13T12:21:09.612Z,4.03
2024-02-13T12:24:15.228Z,5.45
2024-02-13T12:27:20.397Z,4.28
2024-02-13T12:30:24.315Z,5.72
2024-02-13T12:33:27.655Z,5.55
2024-02-13T12:36:32.031Z,8.07
2024-02-13T12:39:38.866Z,4.75
2024-02-13T12:42:45.501Z,4.20
2024-02-13T12:45:48.899Z,5.95
2024-02-13T12:48:52.869Z,5.62
2024-02-13T12:51:58.082Z,5.72
2024-02-13T12:55:03.240Z,4.82
2024-02-13T12:58:09.261Z,5.32
2024-02-13T13:01:17.396Z,4.87
2024-02-13T13:04:23.923Z,4.32
2024-02-13T13:07:33.578Z,4.70
2024-02-13T13:10:37.455Z,7.87
2024-02-13T13:13:42.380Z,4.57
2024-02-13T13:16:47.328Z,4.32
2024-02-13T13:19:51.757Z,4.70
2024-02-13T13:22:56.604Z,3.97
2024-02-13T13:26:01.345Z,7.65
2024-02-13T13:29:05.835Z,5.95
2024-02-13T13:32:12.563Z,4.35
2024-02-13T13:35:21.582Z,3.58
2024-02-13T13:38:28.670Z,3.35
2024-02-13T13:41:38.002Z,4.47
2024-02-13T13:44:45.656Z,3.53
2024-02-13T13:47:49.748Z,4.30
2024-02-13T13:50:56.529Z,3.17
2024-02-13T13:54:04.563Z,3.42
2024-02-13T13:57:14.314Z,3.67
2024-02-13T14:00:23.775Z,4.28
2024-02-13T14:03:35.577Z,3.50
2024-02-13T14:06:45.212Z,3.08
2024-02-13T14:09:54.296Z,2.67
2024-02-13T14:13:02.086Z,4.60
2024-02-13T14:16:13.177Z,3.55
2024-02-13T14:19:19.347Z,4.37
2024-02-13T14:22:28.082Z,3.47
2024-02-13T14:25:31.398Z,4.78
2024-02-13T14:28:40.913Z,4.30
2024-02-13T14:31:48.728Z,3.87
2024-02-13T14:34:55.164Z,4.32
2024-02-13T14:38:01.444Z,5.10
2024-02-13T14:41:12.317Z,3.62
2024-02-13T14:44:22.979Z,3.97
2024-02-13T14:47:31.249Z,4.25
2024-02-13T14:53:39.331Z,3.60
2024-02-13T14:56:44.736Z,3.05
2024-02-13T14:59:54.647Z,3.70
2024-02-13T15:03:02.537Z,4.87
2024-02-13T15:06:09.854Z,3.72
2024-02-13T15:09:14.668Z,4.22
2024-02-13T15:12:25.664Z,5.00
2024-02-13T15:15:32.707Z,3.83
2024-02-13T15:18:40.586Z,4.37
2024-02-13T15:21:52.230Z,4.85
2024-02-13T15:25:01.363Z,2.03
2024-02-13T15:28:09.820Z,2.53
2024-02-13T15:31:15.660Z,3.17
2024-02-13T15:34:18.626Z,2.87
2024-02-13T15:37:40.265Z,3.25
2024-02-13T15:41:01.499Z,2.67
2024-02-13T15:44:23.331Z,4.00
2024-02-13T15:47:26.238Z,2.65
2024-02-13T15:50:30.152Z,3.47
2024-02-13T15:53:35.140Z,3.87
2024-02-13T15:56:50.416Z,2.80
2024-02-13T16:00:00.441Z,3.33
2024-02-13T16:03:10.811Z,4.03
2024-02-13T16:06:18.837Z,4.40
2024-02-13T16:09:29.685Z,3.83
2024-02-13T16:12:38.773Z,4.15
2024-02-13T16:15:48.887Z,3.37
2024-02-13T16:18:58.175Z,3.72
2024-02-13T16:22:10.285Z,5.95
2024-02-13T16:25:21.732Z,5.78
2024-02-13T16:28:33.417Z,6.53
2024-02-13T16:31:48.650Z,5.57
2024-02-13T16:35:04.396Z,5.93
2024-02-13T16:38:18.309Z,5.15
2024-02-13T16:41:37.666Z,6.75
2024-02-13T16:44:53.094Z,4.72
2024-02-13T16:48:04.971Z,5.00
2024-02-13T16:51:23.579Z,4.68
2024-02-13T16:54:39.781Z,6.32
2024-02-13T16:57:59.935Z,5.93
2024-02-13T17:01:10.950Z,5.82
2024-02-13T17:04:30.925Z,6.18
2024-02-13T17:07:49.250Z,6.75
2024-02-13T17:11:02.394Z,6.15
2024-02-13T17:14:17.278Z,5.57
2024-02-13T17:17:30.456Z,6.57
2024-02-13T17:20:45.292Z,7.97
2024-02-13T17:23:56.763Z,7.65
2024-02-13T17:27:09.030Z,6.78
2024-02-13T17:30:23.549Z,6.68
2024-02-13T17:33:37.289Z,6.45
2024-02-13T17:36:47.271Z,7.53
2024-02-13T17:40:03.258Z,6.62
2024-02-13T17:43:16.296Z,7.50
2024-02-13T17:46:30.200Z,7.45
2024-02-13T17:49:46.455Z,7.53
2024-02-13T17:52:57.016Z,7.85
2024-02-13T17:56:12.112Z,7.35
2024-02-13T17:59:26.714Z,6.43
2024-02-13T18:02:46.254Z,6.05
2024-02-13T18:06:03.889Z,6.18
2024-02-13T18:09:19.762Z,7.20
2024-02-13T18:12:37.594Z,5.80
2024-02-13T18:15:53.976Z,7.57
2024-02-13T18:19:12.298Z,5.15
2024-02-13T18:22:25.233Z,7.37
2024-02-13T18:25:46.784Z,6.95
2024-02-13T18:29:03.497Z,5.32
2024-02-13T18:32:23.409Z,5.32
2024-02-13T18:35:47.973Z,5.47
2024-02-13T18:39:04.783Z,6.40
2024-02-13T18:42:17.116Z,7.03
2024-02-13T18:45:30.563Z,6.80
2024-02-13T18:48:44.048Z,5.70
2024-02-13T18:52:01.942Z,8.10
2024-02-13T18:55:14.196Z,8.98
2024-02-13T18:58:44.724Z,6.90
2024-02-13T19:02:11.182Z,5.62
2024-02-13T19:05:29.513Z,6.37
2024-02-13T19:08:47.070Z,7.12
2024-02-13T19:12:07.778Z,7.20
2024-02-13T19:15:23.854Z,6.57
2024-02-13T19:18:43.318Z,7.85
2024-02-13T19:21:56.733Z,6.82
2024-02-13T19:25:16.634Z,8.27
2024-02-13T19:28:43.633Z,8.23
2024-02-13T19:31:59.918Z,8.93
2024-02-13T19:35:10.980Z,7.53
2024-02-13T19:38:26.114Z,8.40
2024-02-13T19:41:38.023Z,9.48
2024-02-13T19:44:49.423Z,7.20
2024-02-13T19:48:03.416Z,7.57
2024-02-13T19:51:14.904Z,6.43
2024-02-13T19:54:27.760Z,7.82
2024-02-13T19:57:38.589Z,9.07
2024-02-13T20:00:50.399Z,8.75
2024-02-13T20:04:04.832Z,6.80
2024-02-13T20:07:22.875Z,6.87
2024-02-13T20:10:37.701Z,7.87
2024-02-13T20:13:53.800Z,7.78
2024-02-13T20:17:15.253Z,10.27
2024-02-13T20:20:34.480Z,6.57
2024-02-13T20:23:54.674Z,8.43
2024-02-13T20:27:04.313Z,7.45
2024-02-13T20:30:17.928Z,7.75
2024-02-13T20:33:35.449Z,10.18
2024-02-13T20:36:56.818Z,6.53
2024-02-13T20:40:18.865Z,8.07
2024-02-13T20:43:35.320Z,8.63
2024-02-13T20:50:01.329Z,9.38
2024-02-13T20:53:10.609Z,10.07
2024-02-13T20:56:23.886Z,7.82
2024-02-13T20:59:37.248Z,8.75
2024-02-13T21:03:11.121Z,7.62
2024-02-13T21:06:34.928Z,9.35
2024-02-13T21:10:01.971Z,7.70
2024-02-13T21:13:17.944Z,9.00
2024-02-13T21:16:37.034Z,10.18
2024-02-13T21:20:03.476Z,8.57
2024-02-13T21:23:35.436Z,9.52
2024-02-13T21:26:54.244Z,9.27
2024-02-13T21:30:11.011Z,9.63
2024-02-13T21:33:24.860Z,9.98
2024-02-13T21:36:37.278Z,8.32
2024-02-13T21:39:52.627Z,8.57
2024-02-13T21:43:03.804Z,9.00
2024-02-13T21:46:18.104Z,7.85
2024-02-13T21:49:35.497Z,10.13
2024-02-13T21:52:49.371Z,7.85
2024-02-13T21:56:03.662Z,8.57
2024-02-13T21:59:19.807Z,7.85
2024-02-13T22:02:39.045Z,7.82
2024-02-13T22:05:53.745Z,7.35
2024-02-13T22:09:07.139Z,9.90
2024-02-13T22:12:24.748Z,7.68
2024-02-13T22:15:42.302Z,7.70
2024-02-13T22:18:58.804Z,8.70
2024-02-13T22:22:11.967Z,8.43
2024-02-13T22:25:31.620Z,10.07
2024-02-13T22:28:47.754Z,9.10
2024-02-13T22:32:00.770Z,9.07
2024-02-13T22:35:13.775Z,9.02
2024-02-13T22:38:39.574Z,7.28
2024-02-13T22:41:55.507Z,10.82
2024-02-13T22:45:09.864Z,9.30
2024-02-13T22:48:23.021Z,7.90
2024-02-13T22:51:45.233Z,8.68
2024-02-13T22:54:55.356Z,7.97
2024-02-13T22:58:15.997Z,7.28
2024-02-13T23:01:41.316Z,9.23
2024-02-13T23:05:04.867Z,7.55
2024-02-13T23:08:21.177Z,7.03
2024-02-13T23:11:38.758Z,7.03
2024-02-13T23:14:54.112Z,6.30
2024-02-13T23:18:08.607Z,8.40
2024-02-13T23:21:22.014Z,6.60
2024-02-13T23:24:37.758Z,6.60
2024-02-13T23:27:57.869Z,5.62
2024-02-13T23:31:09.902Z,7.20
2024-02-13T23:34:24.603Z,5.57
2024-02-13T23:37:44.425Z,7.32
2024-02-13T23:40:54.638Z,6.00
2024-02-13T23:44:07.342Z,4.55
2024-02-13T23:47:21.022Z,5.30
2024-02-13T23:50:32.594Z,6.12
2024-02-13T23:53:44.716Z,6.65
2024-02-13T23:56:57.799Z,7.35
